Ceredo, West Virginia
Current Conditions -  °F | °C
As of 11:51 PM on Wednesday 22 Oct 2014 (Local Time) from KHTS Reporting Station
Overcast Overcast  
Wind Chill: 45°   Ceiling: 3100
Heat Index: 48°   Visibility: 10mi
Dew Point: 40°   Wind: 6mph
Humidity: 74%   Direction: 340°NNW
Pressure: 30.23"   Gusts: NA
Location:  38.4°N, 82.56°W
Report Text: KHTS 230351Z 34005KT 10SM OVC031 09/04 A3023 RMK AO2 SLP238 T00890044
Loading
Personal Weather Stations






























Interactive Weather Map
Tropical Storm Tracking
New forecast layout! Learn more

10-Day Weather Forecast

Advertisements
Track Severe Weather on mobile